Mullett Lake, MI

10:51 AM EDT on September 20, 2014 (GMT -0400)
Wildcat North | Change Station
CLOSE
Current Station
Personal Weather Station
Location: Cheboygan, MI
Elevation: 640 ft
Nearby Weather Stations

Elev 640 ft 45.58 °N, 84.46 °W | Updated 7 seconds ago

Overcast
Overcast
62.1 °F
Feels Like 62.1 °F
N
2.0
Wind Variable Wind from SW
Gusts 11.0 mph

Today
High -- | Low -- °F
--% Chance of Precip.
Yesterday
High -- | Low -- °F
Precip. -- in
7:22 AM 7:39 PM
Waning Crescent, 12% visible
Pressure 29.69 in
Visibility 7.0 miles
Clouds Mostly Cloudy 2100 ft
Mostly Cloudy 2500 ft
Overcast 10000 ft
Dew Point 61 °F
Humidity 97%
Rainfall 0.72 in
Snow Depth Not available.
UV 0.0 out of 12
Pollen .50 out of 12
Ozone Good
PM2.5 Moderate
Flu Activity Not available.
METAR KSLH 201438Z AUTO 21013G21KT 7SM -RA BKN021 BKN025 OVC100 16/15 A2969 RMK AO2 T01670157

More Conditions Fewer Conditions

Pressure 29.69 in
Visibility 7.0 miles
Clouds Mostly Cloudy 2100 ft
Mostly Cloudy 2500 ft
Overcast 10000 ft
Dew Point 61 °F
Humidity 97%
Rainfall 0.72 in
Snow Depth Not available.
UV 0.0 out of 12
Pollen .50 out of 12
Ozone Good
PM2.5 Moderate
Flu Activity Not available.
METAR KSLH 201438Z AUTO 21013G21KT 7SM -RA BKN021 BKN025 OVC100 16/15 A2969 RMK AO2 T01670157

More Conditions Fewer Conditions

Nowcast | as of 10:00 am EDT on September 20, 2014

At 11 am...rain showers likely and chance of thunderstorms. Temperature 63. Southwest winds 13 mph. At 1 PM...rain showers likely and chance of thunderstorms. Temperature 66. Southwest winds 16 mph. At 3 PM...mostly cloudy. Chance of thunderstorms. Temperature 67. Southwest winds 15 mph. At 5 PM...mostly cloudy. Chance of thunderstorms. Temperature 66. West winds 14 mph.

×

10-Day Weather Forecast

Almanac

Astronomy

Sep. 20, 2014 Rise Set
Actual Time 7:22 AM EDT 7:39 PM EDT
Civil Twilight 6:52 AM EDT 8:09 PM EDT
Nautical Twilight 6:18 AM EDT 8:43 PM EDT
Astronomical Twilight 5:42 AM EDT 9:19 PM EDT
Moon 3:52 AM EDT 5:49 PM EDT
Length of Visible Light 13h 16m
Length of Day
12h 16m
Tomorrow will be 3m 11s shorter.
Waning Crescent, 12% of the Moon is Illuminated
Today
Waning Crescent
Sep 24
New
Oct 1
First Quarter
Oct 8
Full
Oct 15
Last Quarter

Today's Extremes

State Highs State Lows

Community

WunderPhotos

Upload Photos

1,754,872 photos uploaded!

WunderBlogs® & News

Nearby

Air Quality

  Air Quality AQ Index Pollutant
Yesterday Good
OZONE
Yesterday Good
PM2.5
Current Moderate
PM2.5
Current Good
OZONE
Saturday Good
OZONE
Saturday Good
PM2.5
Sunday Good
OZONE
Sunday Good
PM2.5
Monday Good
OZONE
Monday Good
PM2.5

Snow Depth

Station Depth Elevation
No new snow has been reported.

Earthquake Activity

City Distance Mag. Time & Date
No recent earthquake activity has been reported nearby.
Minimum magnitude displayed is 2.5.

Coastal Water Temperatures

Place Temperature
Mackinaw City, MI 60.1 °F
De Tour Village, MI 55.9 °F
Alpena, MI 60.1 °F

Nearby Weather Stations